sensor_id;sensor_type;location;lat;lon;timestamp;temperature;humidity
46590;DHT22;32313;48.722;9.362;2024-02-21T00:00:02;2.80;99.90
46590;DHT22;32313;48.722;9.362;2024-02-21T00:02:30;2.80;99.90
46590;DHT22;32313;48.722;9.362;2024-02-21T00:04:56;2.90;99.90
46590;DHT22;32313;48.722;9.362;2024-02-21T00:07:21;2.90;99.90
46590;DHT22;32313;48.722;9.362;2024-02-21T00:09:47;2.90;99.90
46590;DHT22;32313;48.722;9.362;2024-02-21T00:12:14;2.90;99.90
46590;DHT22;32313;48.722;9.362;2024-02-21T00:14:40;2.90;99.90
46590;DHT22;32313;48.722;9.362;2024-02-21T00:17:06;3.00;99.90
46590;DHT22;32313;48.722;9.362;2024-02-21T00:19:34;3.10;99.90
46590;DHT22;32313;48.722;9.362;2024-02-21T00:21:59;3.10;99.90
46590;DHT22;32313;48.722;9.362;2024-02-21T00:24:25;3.10;99.90
46590;DHT22;32313;48.722;9.362;2024-02-21T00:26:51;3.10;99.90
46590;DHT22;32313;48.722;9.362;2024-02-21T00:29:16;3.10;99.90
46590;DHT22;32313;48.722;9.362;2024-02-21T00:31:42;3.10;99.90
46590;DHT22;32313;48.722;9.362;2024-02-21T00:34:09;3.10;99.90
46590;DHT22;32313;48.722;9.362;2024-02-21T00:36:35;3.00;99.90
46590;DHT22;32313;48.722;9.362;2024-02-21T00:39:01;3.10;99.90
46590;DHT22;32313;48.722;9.362;2024-02-21T00:41:27;3.10;99.90
46590;DHT22;32313;48.722;9.362;2024-02-21T00:43:52;3.10;99.90
46590;DHT22;32313;48.722;9.362;2024-02-21T00:46:18;3.10;99.90
46590;DHT22;32313;48.722;9.362;2024-02-21T00:48:44;3.10;99.90
46590;DHT22;32313;48.722;9.362;2024-02-21T00:51:09;3.20;99.90
46590;DHT22;32313;48.722;9.362;2024-02-21T00:53:35;3.20;99.90
46590;DHT22;32313;48.722;9.362;2024-02-21T00:56:05;3.20;99.90
46590;DHT22;32313;48.722;9.362;2024-02-21T00:58:30;3.20;99.90
46590;DHT22;32313;48.722;9.362;2024-02-21T01:00:56;3.30;99.90
46590;DHT22;32313;48.722;9.362;2024-02-21T01:03:22;3.30;99.90
46590;DHT22;32313;48.722;9.362;2024-02-21T01:05:47;3.40;99.90
46590;DHT22;32313;48.722;9.362;2024-02-21T01:08:13;3.50;99.90
46590;DHT22;32313;48.722;9.362;2024-02-21T01:10:39;3.50;99.90
46590;DHT22;32313;48.722;9.362;2024-02-21T01:13:05;3.60;99.90
46590;DHT22;32313;48.722;9.362;2024-02-21T01:15:31;3.60;99.90
46590;DHT22;32313;48.722;9.362;2024-02-21T01:17:56;3.70;99.90
46590;DHT22;32313;48.722;9.362;2024-02-21T01:20:22;3.70;99.90
46590;DHT22;32313;48.722;9.362;2024-02-21T01:22:48;3.70;99.90
46590;DHT22;32313;48.722;9.362;2024-02-21T01:25:14;3.70;99.90
46590;DHT22;32313;48.722;9.362;2024-02-21T01:27:40;3.70;99.90
46590;DHT22;32313;48.722;9.362;2024-02-21T01:30:07;3.70;99.90
46590;DHT22;32313;48.722;9.362;2024-02-21T01:32:33;3.70;99.90
46590;DHT22;32313;48.722;9.362;2024-02-21T01:34:58;3.70;99.90
46590;DHT22;32313;48.722;9.362;2024-02-21T01:37:24;3.70;99.90
46590;DHT22;32313;48.722;9.362;2024-02-21T01:39:50;3.70;99.90
46590;DHT22;32313;48.722;9.362;2024-02-21T01:42:16;3.70;99.90
46590;DHT22;32313;48.722;9.362;2024-02-21T01:44:42;3.70;99.90
46590;DHT22;32313;48.722;9.362;2024-02-21T01:47:07;3.70;99.90
46590;DHT22;32313;48.722;9.362;2024-02-21T01:49:33;3.70;99.90
46590;DHT22;32313;48.722;9.362;2024-02-21T01:52:00;3.70;99.90
46590;DHT22;32313;48.722;9.362;2024-02-21T01:54:26;3.80;99.90
46590;DHT22;32313;48.722;9.362;2024-02-21T01:56:54;3.70;99.90
46590;DHT22;32313;48.722;9.362;2024-02-21T01:59:21;3.70;99.90
46590;DHT22;32313;48.722;9.362;2024-02-21T02:01:47;3.70;99.90
46590;DHT22;32313;48.722;9.362;2024-02-21T02:04:14;3.70;99.90
46590;DHT22;32313;48.722;9.362;2024-02-21T02:06:41;3.70;99.90
46590;DHT22;32313;48.722;9.362;2024-02-21T02:09:07;3.60;99.90
46590;DHT22;32313;48.722;9.362;2024-02-21T02:11:33;3.60;99.90
46590;DHT22;32313;48.722;9.362;2024-02-21T02:13:58;3.70;99.90
46590;DHT22;32313;48.722;9.362;2024-02-21T02:16:24;3.70;99.90
46590;DHT22;32313;48.722;9.362;2024-02-21T02:18:50;3.70;99.90
46590;DHT22;32313;48.722;9.362;2024-02-21T02:21:27;3.70;99.90
46590;DHT22;32313;48.722;9.362;2024-02-21T02:23:55;3.70;99.90
46590;DHT22;32313;48.722;9.362;2024-02-21T02:26:20;3.70;99.90
46590;DHT22;32313;48.722;9.362;2024-02-21T02:28:46;3.70;99.90
46590;DHT22;32313;48.722;9.362;2024-02-21T02:31:12;3.70;99.90
46590;DHT22;32313;48.722;9.362;2024-02-21T02:33:38;3.70;99.90
46590;DHT22;32313;48.722;9.362;2024-02-21T02:36:03;3.80;99.90
46590;DHT22;32313;48.722;9.362;2024-02-21T02:38:29;3.80;99.90
46590;DHT22;32313;48.722;9.362;2024-02-21T02:40:55;3.80;99.90
46590;DHT22;32313;48.722;9.362;2024-02-21T02:43:21;3.80;99.90
46590;DHT22;32313;48.722;9.362;2024-02-21T02:45:46;3.80;99.90
46590;DHT22;32313;48.722;9.362;2024-02-21T02:48:12;3.80;99.90
46590;DHT22;32313;48.722;9.362;2024-02-21T02:50:38;3.80;99.90
46590;DHT22;32313;48.722;9.362;2024-02-21T02:53:03;3.90;99.90
46590;DHT22;32313;48.722;9.362;2024-02-21T02:55:29;3.90;99.90
46590;DHT22;32313;48.722;9.362;2024-02-21T02:57:55;3.90;99.90
46590;DHT22;32313;48.722;9.362;2024-02-21T03:00:21;3.90;99.90
46590;DHT22;32313;48.722;9.362;2024-02-21T03:02:49;3.90;99.90
46590;DHT22;32313;48.722;9.362;2024-02-21T03:05:17;4.00;99.90
46590;DHT22;32313;48.722;9.362;2024-02-21T03:07:43;4.00;99.90
46590;DHT22;32313;48.722;9.362;2024-02-21T03:10:10;4.00;99.90
46590;DHT22;32313;48.722;9.362;2024-02-21T03:12:36;4.00;99.90
46590;DHT22;32313;48.722;9.362;2024-02-21T03:15:02;4.10;99.90
46590;DHT22;32313;48.722;9.362;2024-02-21T03:17:28;4.10;99.90
46590;DHT22;32313;48.722;9.362;2024-02-21T03:19:54;4.10;99.90
46590;DHT22;32313;48.722;9.362;2024-02-21T03:22:24;4.10;99.90
46590;DHT22;32313;48.722;9.362;2024-02-21T03:24:49;4.10;99.90
46590;DHT22;32313;48.722;9.362;2024-02-21T03:27:15;4.10;99.90
46590;DHT22;32313;48.722;9.362;2024-02-21T03:29:41;4.10;99.90
46590;DHT22;32313;48.722;9.362;2024-02-21T03:32:06;4.10;99.90
46590;DHT22;32313;48.722;9.362;2024-02-21T03:34:32;4.10;99.90
46590;DHT22;32313;48.722;9.362;2024-02-21T03:36:59;4.10;99.90
46590;DHT22;32313;48.722;9.362;2024-02-21T03:39:25;4.00;99.90
46590;DHT22;32313;48.722;9.362;2024-02-21T03:41:51;3.90;99.90
46590;DHT22;32313;48.722;9.362;2024-02-21T03:44:17;3.90;99.90
46590;DHT22;32313;48.722;9.362;2024-02-21T03:46:43;3.80;99.90
46590;DHT22;32313;48.722;9.362;2024-02-21T03:49:08;3.70;99.90
46590;DHT22;32313;48.722;9.362;2024-02-21T03:51:34;3.60;99.90
46590;DHT22;32313;48.722;9.362;2024-02-21T03:54:00;3.60;99.90
46590;DHT22;32313;48.722;9.362;2024-02-21T03:56:25;3.70;99.90
46590;DHT22;32313;48.722;9.362;2024-02-21T03:58:51;3.70;99.90
46590;DHT22;32313;48.722;9.362;2024-02-21T04:01:17;3.70;99.90
46590;DHT22;32313;48.722;9.362;2024-02-21T04:03:44;3.60;99.90
46590;DHT22;32313;48.722;9.362;2024-02-21T04:06:09;3.60;99.90
46590;DHT22;32313;48.722;9.362;2024-02-21T04:08:35;3.50;99.90
46590;DHT22;32313;48.722;9.362;2024-02-21T04:11:01;3.50;99.90
46590;DHT22;32313;48.722;9.362;2024-02-21T04:13:27;3.40;99.90
46590;DHT22;32313;48.722;9.362;2024-02-21T04:15:52;3.40;99.90
46590;DHT22;32313;48.722;9.362;2024-02-21T04:18:18;3.40;99.90
46590;DHT22;32313;48.722;9.362;2024-02-21T04:20:44;3.40;99.90
46590;DHT22;32313;48.722;9.362;2024-02-21T04:23:10;3.40;99.90
46590;DHT22;32313;48.722;9.362;2024-02-21T04:25:36;3.30;99.90
46590;DHT22;32313;48.722;9.362;2024-02-21T04:28:02;3.30;99.90
46590;DHT22;32313;48.722;9.362;2024-02-21T04:30:28;3.30;99.90
46590;DHT22;32313;48.722;9.362;2024-02-21T04:32:54;3.30;99.90
46590;DHT22;32313;48.722;9.362;2024-02-21T04:35:20;3.30;99.90
46590;DHT22;32313;48.722;9.362;2024-02-21T04:37:45;3.30;99.90
46590;DHT22;32313;48.722;9.362;2024-02-21T04:40:11;3.30;99.90
46590;DHT22;32313;48.722;9.362;2024-02-21T04:42:37;3.20;99.90
46590;DHT22;32313;48.722;9.362;2024-02-21T04:45:03;3.20;99.90
46590;DHT22;32313;48.722;9.362;2024-02-21T04:47:29;3.20;99.90
46590;DHT22;32313;48.722;9.362;2024-02-21T04:49:55;3.10;99.90
46590;DHT22;32313;48.722;9.362;2024-02-21T04:52:20;3.00;99.90
46590;DHT22;32313;48.722;9.362;2024-02-21T04:54:46;2.90;99.90
46590;DHT22;32313;48.722;9.362;2024-02-21T04:57:12;2.90;99.90
46590;DHT22;32313;48.722;9.362;2024-02-21T04:59:46;2.80;99.90
46590;DHT22;32313;48.722;9.362;2024-02-21T05:02:13;2.80;99.90
46590;DHT22;32313;48.722;9.362;2024-02-21T05:04:39;2.70;99.90
46590;DHT22;32313;48.722;9.362;2024-02-21T05:07:07;2.70;99.90
46590;DHT22;32313;48.722;9.362;2024-02-21T05:09:32;2.70;99.90
46590;DHT22;32313;48.722;9.362;2024-02-21T05:11:58;2.60;99.90
46590;DHT22;32313;48.722;9.362;2024-02-21T05:14:27;2.50;99.90
46590;DHT22;32313;48.722;9.362;2024-02-21T05:16:53;2.50;99.90
46590;DHT22;32313;48.722;9.362;2024-02-21T05:19:18;2.40;99.90
46590;DHT22;32313;48.722;9.362;2024-02-21T05:21:50;2.20;99.90
46590;DHT22;32313;48.722;9.362;2024-02-21T05:24:16;2.10;99.90
46590;DHT22;32313;48.722;9.362;2024-02-21T05:26:44;2.00;99.90
46590;DHT22;32313;48.722;9.362;2024-02-21T05:29:13;1.90;99.90
46590;DHT22;32313;48.722;9.362;2024-02-21T05:34:17;1.70;99.90
46590;DHT22;32313;48.722;9.362;2024-02-21T05:36:43;1.70;99.90
46590;DHT22;32313;48.722;9.362;2024-02-21T05:39:09;1.60;99.90
46590;DHT22;32313;48.722;9.362;2024-02-21T05:41:35;1.50;99.90
46590;DHT22;32313;48.722;9.362;2024-02-21T05:44:01;1.50;99.90
46590;DHT22;32313;48.722;9.362;2024-02-21T05:46:26;1.40;99.90
46590;DHT22;32313;48.722;9.362;2024-02-21T05:48:52;1.40;99.90
46590;DHT22;32313;48.722;9.362;2024-02-21T05:51:18;1.40;99.90
46590;DHT22;32313;48.722;9.362;2024-02-21T05:53:43;1.40;99.90
46590;DHT22;32313;48.722;9.362;2024-02-21T05:56:13;1.40;99.90
46590;DHT22;32313;48.722;9.362;2024-02-21T05:58:40;1.40;99.90
46590;DHT22;32313;48.722;9.362;2024-02-21T06:01:06;1.40;99.90
46590;DHT22;32313;48.722;9.362;2024-02-21T06:03:34;1.40;99.90
46590;DHT22;32313;48.722;9.362;2024-02-21T06:06:02;1.40;99.90
46590;DHT22;32313;48.722;9.362;2024-02-21T06:08:27;1.40;99.90
46590;DHT22;32313;48.722;9.362;2024-02-21T06:10:53;1.60;99.90
46590;DHT22;32313;48.722;9.362;2024-02-21T06:13:23;1.60;99.90
46590;DHT22;32313;48.722;9.362;2024-02-21T06:15:49;1.50;99.90
46590;DHT22;32313;48.722;9.362;2024-02-21T06:18:19;1.50;99.90
46590;DHT22;32313;48.722;9.362;2024-02-21T06:20:45;1.40;99.90
46590;DHT22;32313;48.722;9.362;2024-02-21T06:23:17;1.30;99.90
46590;DHT22;32313;48.722;9.362;2024-02-21T06:25:43;1.20;99.90
46590;DHT22;32313;48.722;9.362;2024-02-21T06:28:09;1.20;99.90
46590;DHT22;32313;48.722;9.362;2024-02-21T06:30:35;1.20;99.90
46590;DHT22;32313;48.722;9.362;2024-02-21T06:33:01;1.10;99.90
46590;DHT22;32313;48.722;9.362;2024-02-21T06:35:28;1.10;99.90
46590;DHT22;32313;48.722;9.362;2024-02-21T06:37:54;1.10;99.90
46590;DHT22;32313;48.722;9.362;2024-02-21T06:40:23;1.00;99.90
46590;DHT22;32313;48.722;9.362;2024-02-21T06:42:50;1.00;99.90
46590;DHT22;32313;48.722;9.362;2024-02-21T06:45:16;1.00;99.90
46590;DHT22;32313;48.722;9.362;2024-02-21T06:47:42;1.10;99.90
46590;DHT22;32313;48.722;9.362;2024-02-21T06:50:09;1.10;99.90
46590;DHT22;32313;48.722;9.362;2024-02-21T06:52:35;1.20;99.90
46590;DHT22;32313;48.722;9.362;2024-02-21T06:55:01;1.20;99.90
46590;DHT22;32313;48.722;9.362;2024-02-21T06:57:29;1.20;99.90
46590;DHT22;32313;48.722;9.362;2024-02-21T06:59:54;1.30;99.90
46590;DHT22;32313;48.722;9.362;2024-02-21T07:02:20;1.50;99.90
46590;DHT22;32313;48.722;9.362;2024-02-21T07:04:46;1.60;99.90
46590;DHT22;32313;48.722;9.362;2024-02-21T07:07:11;1.60;99.90
46590;DHT22;32313;48.722;9.362;2024-02-21T07:09:38;1.70;99.90
46590;DHT22;32313;48.722;9.362;2024-02-21T07:12:04;1.80;99.90
46590;DHT22;32313;48.722;9.362;2024-02-21T07:14:32;1.80;99.90
46590;DHT22;32313;48.722;9.362;2024-02-21T07:16:57;1.90;99.90
46590;DHT22;32313;48.722;9.362;2024-02-21T07:19:23;1.90;99.90
46590;DHT22;32313;48.722;9.362;2024-02-21T07:21:49;2.00;99.90
46590;DHT22;32313;48.722;9.362;2024-02-21T07:24:15;2.10;99.90
46590;DHT22;32313;48.722;9.362;2024-02-21T07:26:44;2.20;99.90
46590;DHT22;32313;48.722;9.362;2024-02-21T07:29:11;2.20;99.90
46590;DHT22;32313;48.722;9.362;2024-02-21T07:31:44;2.40;99.90
46590;DHT22;32313;48.722;9.362;2024-02-21T07:34:10;2.60;99.90
46590;DHT22;32313;48.722;9.362;2024-02-21T07:36:36;2.90;99.90
46590;DHT22;32313;48.722;9.362;2024-02-21T07:39:05;3.40;99.90
46590;DHT22;32313;48.722;9.362;2024-02-21T07:41:31;3.90;99.90
46590;DHT22;32313;48.722;9.362;2024-02-21T07:43:57;4.20;99.90
46590;DHT22;32313;48.722;9.362;2024-02-21T07:46:23;4.50;99.90
46590;DHT22;32313;48.722;9.362;2024-02-21T07:48:48;4.80;99.90
46590;DHT22;32313;48.722;9.362;2024-02-21T07:51:14;5.20;99.90
46590;DHT22;32313;48.722;9.362;2024-02-21T07:53:43;5.60;99.90
46590;DHT22;32313;48.722;9.362;2024-02-21T07:56:14;5.80;99.90
46590;DHT22;32313;48.722;9.362;2024-02-21T07:58:40;5.90;99.90
46590;DHT22;32313;48.722;9.362;2024-02-21T08:01:06;6.10;99.90
46590;DHT22;32313;48.722;9.362;2024-02-21T08:03:32;6.10;99.90
46590;DHT22;32313;48.722;9.362;2024-02-21T08:05:57;6.10;99.90
46590;DHT22;32313;48.722;9.362;2024-02-21T08:08:23;6.20;99.90
46590;DHT22;32313;48.722;9.362;2024-02-21T08:10:50;6.20;99.90
46590;DHT22;32313;48.722;9.362;2024-02-21T08:13:16;6.30;99.90
46590;DHT22;32313;48.722;9.362;2024-02-21T08:15:42;6.20;99.90
46590;DHT22;32313;48.722;9.362;2024-02-21T08:18:08;6.20;99.90
46590;DHT22;32313;48.722;9.362;2024-02-21T08:20:33;6.30;99.90
46590;DHT22;32313;48.722;9.362;2024-02-21T08:22:59;6.40;99.90
46590;DHT22;32313;48.722;9.362;2024-02-21T08:25:25;6.40;99.90
46590;DHT22;32313;48.722;9.362;2024-02-21T08:27:51;6.50;99.90
46590;DHT22;32313;48.722;9.362;2024-02-21T08:30:19;6.60;99.90
46590;DHT22;32313;48.722;9.362;2024-02-21T08:32:45;6.70;99.90
46590;DHT22;32313;48.722;9.362;2024-02-21T08:35:11;6.90;99.90
46590;DHT22;32313;48.722;9.362;2024-02-21T08:37:38;7.10;99.90
46590;DHT22;32313;48.722;9.362;2024-02-21T08:40:04;7.20;99.90
46590;DHT22;32313;48.722;9.362;2024-02-21T08:42:40;7.50;99.90
46590;DHT22;32313;48.722;9.362;2024-02-21T08:45:06;7.80;99.90
46590;DHT22;32313;48.722;9.362;2024-02-21T08:47:33;8.10;99.90
46590;DHT22;32313;48.722;9.362;2024-02-21T08:49:59;8.40;99.90
46590;DHT22;32313;48.722;9.362;2024-02-21T08:52:24;8.50;99.90
46590;DHT22;32313;48.722;9.362;2024-02-21T08:54:50;8.50;99.90
46590;DHT22;32313;48.722;9.362;2024-02-21T08:57:19;8.50;99.90
46590;DHT22;32313;48.722;9.362;2024-02-21T08:59:44;8.70;99.90
46590;DHT22;32313;48.722;9.362;2024-02-21T09:02:10;8.80;99.90
46590;DHT22;32313;48.722;9.362;2024-02-21T09:04:36;8.80;99.90
46590;DHT22;32313;48.722;9.362;2024-02-21T09:07:01;8.90;99.90
46590;DHT22;32313;48.722;9.362;2024-02-21T09:09:27;9.00;99.90
46590;DHT22;32313;48.722;9.362;2024-02-21T09:11:53;9.10;99.90
46590;DHT22;32313;48.722;9.362;2024-02-21T09:14:19;9.10;99.90
46590;DHT22;32313;48.722;9.362;2024-02-21T09:16:45;9.10;99.90
46590;DHT22;32313;48.722;9.362;2024-02-21T09:19:11;9.10;99.90
46590;DHT22;32313;48.722;9.362;2024-02-21T09:21:37;9.10;99.90
46590;DHT22;32313;48.722;9.362;2024-02-21T09:24:04;9.10;99.90
46590;DHT22;32313;48.722;9.362;2024-02-21T09:26:30;9.00;99.90
46590;DHT22;32313;48.722;9.362;2024-02-21T09:28:57;9.10;99.90
46590;DHT22;32313;48.722;9.362;2024-02-21T09:31:23;9.20;99.90
46590;DHT22;32313;48.722;9.362;2024-02-21T09:33:48;9.30;99.90
46590;DHT22;32313;48.722;9.362;2024-02-21T09:36:14;9.40;99.90
46590;DHT22;32313;48.722;9.362;2024-02-21T09:38:40;9.40;99.90
46590;DHT22;32313;48.722;9.362;2024-02-21T09:41:25;9.60;99.90
46590;DHT22;32313;48.722;9.362;2024-02-21T09:43:53;9.80;99.90
46590;DHT22;32313;48.722;9.362;2024-02-21T09:46:37;10.00;99.90
46590;DHT22;32313;48.722;9.362;2024-02-21T09:52:00;10.30;99.90
46590;DHT22;32313;48.722;9.362;2024-02-21T09:54:29;10.70;99.90
46590;DHT22;32313;48.722;9.362;2024-02-21T09:56:59;11.00;99.90
46590;DHT22;32313;48.722;9.362;2024-02-21T09:59:25;11.40;99.90
46590;DHT22;32313;48.722;9.362;2024-02-21T10:01:52;11.90;99.90
46590;DHT22;32313;48.722;9.362;2024-02-21T10:04:20;11.90;99.90
46590;DHT22;32313;48.722;9.362;2024-02-21T10:06:46;12.00;99.90
46590;DHT22;32313;48.722;9.362;2024-02-21T10:09:22;12.50;99.90
46590;DHT22;32313;48.722;9.362;2024-02-21T10:11:49;12.80;99.90
46590;DHT22;32313;48.722;9.362;2024-02-21T10:14:15;13.10;99.90
46590;DHT22;32313;48.722;9.362;2024-02-21T10:16:41;13.30;99.90
46590;DHT22;32313;48.722;9.362;2024-02-21T10:19:19;13.40;99.90
46590;DHT22;32313;48.722;9.362;2024-02-21T10:22:18;13.40;99.90
46590;DHT22;32313;48.722;9.362;2024-02-21T10:24:43;13.40;99.90
46590;DHT22;32313;48.722;9.362;2024-02-21T10:27:10;13.50;99.90
46590;DHT22;32313;48.722;9.362;2024-02-21T10:29:39;13.80;99.90
46590;DHT22;32313;48.722;9.362;2024-02-21T10:32:13;14.00;99.90
46590;DHT22;32313;48.722;9.362;2024-02-21T10:34:40;14.00;99.90
46590;DHT22;32313;48.722;9.362;2024-02-21T10:37:07;14.20;99.90
46590;DHT22;32313;48.722;9.362;2024-02-21T10:39:38;14.20;99.90
46590;DHT22;32313;48.722;9.362;2024-02-21T10:42:04;14.10;99.90
46590;DHT22;32313;48.722;9.362;2024-02-21T10:44:32;14.20;99.90
46590;DHT22;32313;48.722;9.362;2024-02-21T10:46:58;14.40;99.90
46590;DHT22;32313;48.722;9.362;2024-02-21T10:49:27;14.30;99.90
46590;DHT22;32313;48.722;9.362;2024-02-21T10:54:44;14.50;99.90
46590;DHT22;32313;48.722;9.362;2024-02-21T10:57:12;14.50;99.90
46590;DHT22;32313;48.722;9.362;2024-02-21T10:59:39;14.40;99.90
46590;DHT22;32313;48.722;9.362;2024-02-21T11:02:06;14.20;99.90
46590;DHT22;32313;48.722;9.362;2024-02-21T11:04:33;14.10;99.90
46590;DHT22;32313;48.722;9.362;2024-02-21T11:07:05;13.90;99.90
46590;DHT22;32313;48.722;9.362;2024-02-21T11:09:33;13.80;99.90
46590;DHT22;32313;48.722;9.362;2024-02-21T11:12:02;13.90;99.90
46590;DHT22;32313;48.722;9.362;2024-02-21T11:14:29;13.90;99.90
46590;DHT22;32313;48.722;9.362;2024-02-21T11:16:58;13.90;99.90
46590;DHT22;32313;48.722;9.362;2024-02-21T11:19:28;13.80;99.90
46590;DHT22;32313;48.722;9.362;2024-02-21T11:21:55;14.10;99.90
46590;DHT22;32313;48.722;9.362;2024-02-21T11:24:32;14.20;99.90
46590;DHT22;32313;48.722;9.362;2024-02-21T11:27:21;14.50;99.90
46590;DHT22;32313;48.722;9.362;2024-02-21T11:29:48;14.50;99.90
46590;DHT22;32313;48.722;9.362;2024-02-21T11:32:18;14.50;99.90
46590;DHT22;32313;48.722;9.362;2024-02-21T11:35:01;14.40;99.90
46590;DHT22;32313;48.722;9.362;2024-02-21T11:37:29;14.20;99.90
46590;DHT22;32313;48.722;9.362;2024-02-21T11:39:56;14.10;99.90
46590;DHT22;32313;48.722;9.362;2024-02-21T11:42:22;14.00;99.90
46590;DHT22;32313;48.722;9.362;2024-02-21T11:45:06;14.20;99.90
46590;DHT22;32313;48.722;9.362;2024-02-21T11:47:34;14.20;99.90
46590;DHT22;32313;48.722;9.362;2024-02-21T11:50:00;14.30;99.90
46590;DHT22;32313;48.722;9.362;2024-02-21T11:52:25;14.40;99.90
46590;DHT22;32313;48.722;9.362;2024-02-21T11:54:52;14.50;99.90
46590;DHT22;32313;48.722;9.362;2024-02-21T11:57:18;14.60;99.90
46590;DHT22;32313;48.722;9.362;2024-02-21T11:59:47;14.60;99.90
46590;DHT22;32313;48.722;9.362;2024-02-21T12:02:15;14.60;99.90
46590;DHT22;32313;48.722;9.362;2024-02-21T12:04:42;14.50;99.90
46590;DHT22;32313;48.722;9.362;2024-02-21T12:07:08;14.20;99.90
46590;DHT22;32313;48.722;9.362;2024-02-21T12:09:34;14.20;99.90
46590;DHT22;32313;48.722;9.362;2024-02-21T12:12:04;14.10;99.90
46590;DHT22;32313;48.722;9.362;2024-02-21T12:14:32;14.10;99.90
46590;DHT22;32313;48.722;9.362;2024-02-21T12:17:02;14.00;99.90
46590;DHT22;32313;48.722;9.362;2024-02-21T12:19:32;14.00;99.90
46590;DHT22;32313;48.722;9.362;2024-02-21T12:21:59;14.00;99.90
46590;DHT22;32313;48.722;9.362;2024-02-21T12:24:26;14.00;99.90
46590;DHT22;32313;48.722;9.362;2024-02-21T12:26:52;13.80;99.90
46590;DHT22;32313;48.722;9.362;2024-02-21T12:29:19;13.80;99.90
46590;DHT22;32313;48.722;9.362;2024-02-21T12:31:45;13.80;99.90
46590;DHT22;32313;48.722;9.362;2024-02-21T12:34:11;13.70;99.90
46590;DHT22;32313;48.722;9.362;2024-02-21T12:36:42;13.70;99.90
46590;DHT22;32313;48.722;9.362;2024-02-21T12:39:13;13.70;99.90
46590;DHT22;32313;48.722;9.362;2024-02-21T12:41:39;13.80;99.90
46590;DHT22;32313;48.722;9.362;2024-02-21T12:44:07;14.00;99.90
46590;DHT22;32313;48.722;9.362;2024-02-21T12:46:33;14.00;99.90
46590;DHT22;32313;48.722;9.362;2024-02-21T12:49:00;14.00;99.90
46590;DHT22;32313;48.722;9.362;2024-02-21T12:51:26;14.10;99.90
46590;DHT22;32313;48.722;9.362;2024-02-21T12:53:51;14.20;99.90
46590;DHT22;32313;48.722;9.362;2024-02-21T12:56:18;14.40;99.90
46590;DHT22;32313;48.722;9.362;2024-02-21T12:58:44;14.50;99.90
46590;DHT22;32313;48.722;9.362;2024-02-21T13:01:10;14.60;99.90
46590;DHT22;32313;48.722;9.362;2024-02-21T13:03:36;14.50;99.90
46590;DHT22;32313;48.722;9.362;2024-02-21T13:06:02;14.60;99.50
46590;DHT22;32313;48.722;9.362;2024-02-21T13:08:27;14.50;98.50
46590;DHT22;32313;48.722;9.362;2024-02-21T13:10:53;14.60;99.30
46590;DHT22;32313;48.722;9.362;2024-02-21T13:13:19;14.60;97.30
46590;DHT22;32313;48.722;9.362;2024-02-21T13:15:44;14.70;98.10
46590;DHT22;32313;48.722;9.362;2024-02-21T13:18:10;14.60;97.80
46590;DHT22;32313;48.722;9.362;2024-02-21T13:20:36;14.60;96.70
46590;DHT22;32313;48.722;9.362;2024-02-21T13:23:04;14.60;97.30
46590;DHT22;32313;48.722;9.362;2024-02-21T13:25:29;14.60;96.80
46590;DHT22;32313;48.722;9.362;2024-02-21T13:27:55;14.60;96.60
46590;DHT22;32313;48.722;9.362;2024-02-21T13:30:27;14.60;97.00
46590;DHT22;32313;48.722;9.362;2024-02-21T13:32:53;14.70;96.70
46590;DHT22;32313;48.722;9.362;2024-02-21T13:35:20;14.70;95.90
46590;DHT22;32313;48.722;9.362;2024-02-21T13:37:46;14.60;96.10
46590;DHT22;32313;48.722;9.362;2024-02-21T13:40:12;14.50;96.20
46590;DHT22;32313;48.722;9.362;2024-02-21T13:42:41;14.50;96.00
46590;DHT22;32313;48.722;9.362;2024-02-21T13:45:07;14.40;95.80
46590;DHT22;32313;48.722;9.362;2024-02-21T13:47:33;14.40;95.50
46590;DHT22;32313;48.722;9.362;2024-02-21T13:49:59;14.30;95.50
46590;DHT22;32313;48.722;9.362;2024-02-21T13:52:25;14.20;96.00
46590;DHT22;32313;48.722;9.362;2024-02-21T13:54:54;14.20;95.60
46590;DHT22;32313;48.722;9.362;2024-02-21T13:57:20;14.10;96.10
46590;DHT22;32313;48.722;9.362;2024-02-21T13:59:45;14.10;96.10
46590;DHT22;32313;48.722;9.362;2024-02-21T14:02:11;14.10;96.10
46590;DHT22;32313;48.722;9.362;2024-02-21T14:04:38;14.00;96.40
46590;DHT22;32313;48.722;9.362;2024-02-21T14:07:03;14.00;97.00
46590;DHT22;32313;48.722;9.362;2024-02-21T14:09:29;13.90;96.00
46590;DHT22;32313;48.722;9.362;2024-02-21T14:11:55;13.80;96.60
46590;DHT22;32313;48.722;9.362;2024-02-21T14:14:21;13.90;96.30
46590;DHT22;32313;48.722;9.362;2024-02-21T14:16:47;13.80;96.50
46590;DHT22;32313;48.722;9.362;2024-02-21T14:19:14;13.80;97.00
46590;DHT22;32313;48.722;9.362;2024-02-21T14:21:39;13.90;97.80
46590;DHT22;32313;48.722;9.362;2024-02-21T14:24:06;13.90;98.20
46590;DHT22;32313;48.722;9.362;2024-02-21T14:26:31;13.80;98.40
46590;DHT22;32313;48.722;9.362;2024-02-21T14:28:57;13.80;98.80
46590;DHT22;32313;48.722;9.362;2024-02-21T14:31:23;13.80;98.60
46590;DHT22;32313;48.722;9.362;2024-02-21T14:33:51;13.70;98.50
46590;DHT22;32313;48.722;9.362;2024-02-21T14:36:16;13.60;98.80
46590;DHT22;32313;48.722;9.362;2024-02-21T14:38:42;13.50;99.20
46590;DHT22;32313;48.722;9.362;2024-02-21T14:41:09;13.50;99.60
46590;DHT22;32313;48.722;9.362;2024-02-21T14:43:38;13.50;99.90
46590;DHT22;32313;48.722;9.362;2024-02-21T14:46:04;13.50;99.90
46590;DHT22;32313;48.722;9.362;2024-02-21T14:48:31;13.60;99.80
46590;DHT22;32313;48.722;9.362;2024-02-21T14:50:58;13.60;99.40
46590;DHT22;32313;48.722;9.362;2024-02-21T14:53:24;13.60;98.90
46590;DHT22;32313;48.722;9.362;2024-02-21T14:55:50;13.70;99.00
46590;DHT22;32313;48.722;9.362;2024-02-21T14:58:16;13.70;98.90
46590;DHT22;32313;48.722;9.362;2024-02-21T15:00:44;13.70;99.70
46590;DHT22;32313;48.722;9.362;2024-02-21T15:03:13;13.80;99.90
46590;DHT22;32313;48.722;9.362;2024-02-21T15:05:45;13.80;99.90
46590;DHT22;32313;48.722;9.362;2024-02-21T15:08:11;13.80;99.80
46590;DHT22;32313;48.722;9.362;2024-02-21T15:10:38;13.80;99.90
46590;DHT22;32313;48.722;9.362;2024-02-21T15:13:04;13.70;99.90
46590;DHT22;32313;48.722;9.362;2024-02-21T15:15:30;13.70;99.90
46590;DHT22;32313;48.722;9.362;2024-02-21T15:17:56;13.60;99.90
46590;DHT22;32313;48.722;9.362;2024-02-21T15:20:22;13.50;99.90
46590;DHT22;32313;48.722;9.362;2024-02-21T15:22:48;13.40;99.90
46590;DHT22;32313;48.722;9.362;2024-02-21T15:25:14;13.30;99.90
46590;DHT22;32313;48.722;9.362;2024-02-21T15:27:46;13.30;99.90
46590;DHT22;32313;48.722;9.362;2024-02-21T15:30:13;13.20;99.90
46590;DHT22;32313;48.722;9.362;2024-02-21T15:32:40;13.10;99.90
46590;DHT22;32313;48.722;9.362;2024-02-21T15:35:09;13.10;99.90
46590;DHT22;32313;48.722;9.362;2024-02-21T15:37:36;13.00;99.90
46590;DHT22;32313;48.722;9.362;2024-02-21T15:40:02;12.80;99.90
46590;DHT22;32313;48.722;9.362;2024-02-21T15:42:28;12.80;99.90
46590;DHT22;32313;48.722;9.362;2024-02-21T15:44:54;12.70;99.90